createdAt,value
2023-04-19T00:00:59.138Z,963.06
2023-04-19T00:01:59.176Z,963.05
2023-04-19T00:02:59.265Z,963.05
2023-04-19T00:03:59.207Z,963.05
2023-04-19T00:04:59.107Z,963.06
2023-04-19T00:05:58.996Z,963.07
2023-04-19T00:06:58.965Z,963.06
2023-04-19T00:07:58.941Z,963.05
2023-04-19T00:08:58.913Z,963.07
2023-04-19T00:09:58.884Z,963.06
2023-04-19T00:10:58.876Z,963.08
2023-04-19T00:11:58.828Z,963.08
2023-04-19T00:12:58.795Z,963.08
2023-04-19T00:13:58.780Z,963.03
2023-04-19T00:14:58.754Z,963.05
2023-04-19T00:15:58.715Z,963.04
2023-04-19T00:16:58.727Z,963.05
2023-04-19T00:17:58.694Z,963.06
2023-04-19T00:18:58.652Z,963.00
2023-04-19T00:19:58.602Z,963.03
2023-04-19T00:20:58.585Z,963.02
2023-04-19T00:21:58.554Z,963.03
2023-04-19T00:22:58.519Z,963.00
2023-04-19T00:23:58.489Z,962.98
2023-04-19T00:24:58.461Z,962.99
2023-04-19T00:25:58.438Z,963.01
2023-04-19T00:26:58.404Z,962.95
2023-04-19T00:27:58.374Z,962.97
2023-04-19T00:28:58.351Z,962.96
2023-04-19T00:29:58.321Z,962.90
2023-04-19T00:30:58.371Z,962.96
2023-04-19T00:31:58.287Z,962.98
2023-04-19T00:32:58.320Z,962.97
2023-04-19T00:33:58.227Z,962.97
2023-04-19T00:34:58.211Z,962.97
2023-04-19T00:35:58.150Z,962.97
2023-04-19T00:36:58.122Z,962.97
2023-04-19T00:37:58.099Z,962.97
2023-04-19T00:38:58.066Z,962.98
2023-04-19T00:39:58.038Z,962.96
2023-04-19T00:40:58.010Z,963.00
2023-04-19T00:41:57.987Z,962.98
2023-04-19T00:42:57.950Z,962.98
2023-04-19T00:43:57.928Z,962.95
2023-04-19T00:44:57.913Z,962.96
2023-04-19T00:45:57.930Z,962.90
2023-04-19T00:46:57.840Z,962.92
2023-04-19T00:47:57.826Z,962.92
2023-04-19T00:48:57.786Z,962.89
2023-04-19T00:49:57.756Z,962.92
2023-04-19T00:50:57.744Z,962.89
2023-04-19T00:51:57.708Z,962.91
2023-04-19T00:52:57.695Z,962.88
2023-04-19T00:53:57.645Z,962.89
2023-04-19T00:54:57.614Z,962.91
2023-04-19T00:55:57.585Z,962.90
2023-04-19T00:56:57.560Z,962.88
2023-04-19T00:57:57.532Z,962.86
2023-04-19T00:58:57.508Z,962.85
2023-04-19T00:59:57.476Z,962.87
2023-04-19T01:00:57.447Z,962.84
2023-04-19T01:01:57.592Z,962.85
2023-04-19T01:02:57.535Z,962.84
2023-04-19T01:03:57.411Z,962.83
2023-04-19T01:04:57.334Z,962.84
2023-04-19T01:05:57.312Z,962.81
2023-04-19T01:06:57.315Z,962.79
2023-04-19T01:07:57.279Z,962.83
2023-04-19T01:08:57.226Z,962.81
2023-04-19T01:09:57.196Z,962.82
2023-04-19T01:10:57.162Z,962.80
2023-04-19T01:11:57.137Z,962.77
2023-04-19T01:12:57.110Z,962.79
2023-04-19T01:13:57.081Z,962.75
2023-04-19T01:14:57.051Z,962.77
2023-04-19T01:15:57.046Z,962.78
2023-04-19T01:16:57.000Z,962.72
2023-04-19T01:17:57.023Z,962.74
2023-04-19T01:18:56.946Z,962.73
2023-04-19T01:19:56.915Z,962.74
2023-04-19T01:20:56.883Z,962.72
2023-04-19T01:21:56.855Z,962.73
2023-04-19T01:22:56.853Z,962.72
2023-04-19T01:23:56.798Z,962.66
2023-04-19T01:24:56.771Z,962.71
2023-04-19T01:25:56.740Z,962.69
2023-04-19T01:26:56.726Z,962.67
2023-04-19T01:27:56.688Z,962.65
2023-04-19T01:28:56.663Z,962.67
2023-04-19T01:29:56.645Z,962.64
2023-04-19T01:30:56.601Z,962.67
2023-04-19T01:31:56.596Z,962.66
2023-04-19T01:32:56.607Z,962.69
2023-04-19T01:33:56.520Z,962.65
2023-04-19T01:34:56.489Z,962.65
2023-04-19T01:35:56.462Z,962.67
2023-04-19T01:36:56.436Z,962.65
2023-04-19T01:37:56.604Z,962.65
2023-04-19T01:38:56.400Z,962.60
2023-04-19T01:39:56.350Z,962.63
2023-04-19T01:40:56.316Z,962.61
2023-04-19T01:41:56.290Z,962.63
2023-04-19T01:42:56.268Z,962.60
2023-04-19T01:43:56.235Z,962.56
2023-04-19T01:44:56.210Z,962.58
2023-04-19T01:45:56.184Z,962.58
2023-04-19T01:46:56.216Z,962.57
2023-04-19T01:47:56.173Z,962.56
2023-04-19T01:48:56.095Z,962.56
2023-04-19T01:49:56.067Z,962.54
2023-04-19T01:50:56.047Z,962.54
2023-04-19T01:51:56.010Z,962.54
2023-04-19T01:52:55.990Z,962.57
2023-04-19T01:53:55.954Z,962.54
2023-04-19T01:54:55.957Z,962.56
2023-04-19T01:55:55.894Z,962.53
2023-04-19T01:56:55.867Z,962.53
2023-04-19T01:57:55.861Z,962.52
2023-04-19T01:58:55.812Z,962.52
2023-04-19T01:59:55.787Z,962.51
2023-04-19T02:00:55.790Z,962.50
2023-04-19T02:01:55.763Z,962.51
2023-04-19T02:02:55.814Z,962.47
2023-04-19T02:03:55.834Z,962.48
2023-04-19T02:04:55.639Z,962.48
2023-04-19T02:05:55.624Z,962.49
2023-04-19T02:06:55.593Z,962.50
2023-04-19T02:07:55.590Z,962.47
2023-04-19T02:08:55.531Z,962.51
2023-04-19T02:09:55.506Z,962.51
2023-04-19T02:10:55.489Z,962.47
2023-04-19T02:11:55.474Z,962.45
2023-04-19T02:12:55.432Z,962.45
2023-04-19T02:13:55.411Z,962.46
2023-04-19T02:14:55.361Z,962.48
2023-04-19T02:15:55.405Z,962.45
2023-04-19T02:16:55.444Z,962.45
2023-04-19T02:17:55.323Z,962.45
2023-04-19T02:18:55.246Z,962.44
2023-04-19T02:19:55.226Z,962.44
2023-04-19T02:20:55.196Z,962.44
2023-04-19T02:21:55.162Z,962.45
2023-04-19T02:22:55.132Z,962.43
2023-04-19T02:23:55.103Z,962.42
2023-04-19T02:24:55.104Z,962.43
2023-04-19T02:25:55.050Z,962.41
2023-04-19T02:26:55.044Z,962.42
2023-04-19T02:27:54.998Z,962.41
2023-04-19T02:28:54.968Z,962.42
2023-04-19T02:29:54.946Z,962.41
2023-04-19T02:30:54.911Z,962.41
2023-04-19T02:31:54.943Z,962.41
2023-04-19T02:32:54.894Z,962.42
2023-04-19T02:33:54.822Z,962.45
2023-04-19T02:34:54.801Z,962.41
2023-04-19T02:35:54.770Z,962.41
2023-04-19T02:36:54.737Z,962.38
2023-04-19T02:37:54.708Z,962.39
2023-04-19T02:38:54.677Z,962.40
2023-04-19T02:39:54.652Z,962.41
2023-04-19T02:40:54.623Z,962.43
2023-04-19T02:41:54.597Z,962.40
2023-04-19T02:42:54.599Z,962.40
2023-04-19T02:43:54.542Z,962.44
2023-04-19T02:44:54.510Z,962.40
2023-04-19T02:45:54.513Z,962.43
2023-04-19T02:46:54.454Z,962.41
2023-04-19T02:47:54.483Z,962.43
2023-04-19T02:48:54.404Z,962.37
2023-04-19T02:49:54.372Z,962.40
2023-04-19T02:50:54.342Z,962.39
2023-04-19T02:51:54.310Z,962.39
2023-04-19T02:52:54.288Z,962.40
2023-04-19T02:53:54.268Z,962.33
2023-04-19T02:54:54.226Z,962.35
2023-04-19T02:55:54.200Z,962.34
2023-04-19T02:56:54.180Z,962.36
2023-04-19T02:57:54.155Z,962.35
2023-04-19T02:58:54.146Z,962.37
2023-04-19T02:59:54.087Z,962.38
2023-04-19T03:00:54.076Z,962.37
2023-04-19T03:01:54.029Z,962.37
2023-04-19T03:02:54.185Z,962.38
2023-04-19T03:03:54.050Z,962.39
2023-04-19T03:04:53.951Z,962.37
2023-04-19T03:05:53.936Z,962.40
2023-04-19T03:06:53.890Z,962.35
2023-04-19T03:07:53.862Z,962.36
2023-04-19T03:08:53.838Z,962.32
2023-04-19T03:09:53.803Z,962.34
2023-04-19T03:10:53.807Z,962.34
2023-04-19T03:11:53.747Z,962.33
2023-04-19T03:12:53.736Z,962.35
2023-04-19T03:13:53.702Z,962.27
2023-04-19T03:14:53.686Z,962.33
2023-04-19T03:15:53.691Z,962.33
2023-04-19T03:16:53.612Z,962.29
2023-04-19T03:17:53.615Z,962.29
2023-04-19T03:18:53.553Z,962.28
2023-04-19T03:19:53.521Z,962.27
2023-04-19T03:20:53.489Z,962.29
2023-04-19T03:21:53.464Z,962.29
2023-04-19T03:22:53.439Z,962.30
2023-04-19T03:23:53.408Z,962.28
2023-04-19T03:24:53.380Z,962.25
2023-04-19T03:25:53.347Z,962.28
2023-04-19T03:26:53.325Z,962.28
2023-04-19T03:27:53.330Z,962.28
2023-04-19T03:28:53.269Z,962.26
2023-04-19T03:29:53.244Z,962.26
2023-04-19T03:30:53.298Z,962.25
2023-04-19T03:31:53.191Z,962.31
2023-04-19T03:32:53.161Z,962.29
2023-04-19T03:33:53.117Z,962.24
2023-04-19T03:34:53.102Z,962.24
2023-04-19T03:35:53.067Z,962.23
2023-04-19T03:36:53.036Z,962.24
2023-04-19T03:37:53.003Z,962.21
2023-04-19T03:38:52.975Z,962.25
2023-04-19T03:39:52.947Z,962.22
2023-04-19T03:40:52.947Z,962.21
2023-04-19T03:41:52.889Z,962.20
2023-04-19T03:42:52.866Z,962.20
2023-04-19T03:43:52.832Z,962.24
2023-04-19T03:44:52.842Z,962.24
2023-04-19T03:45:52.815Z,962.21
2023-04-19T03:46:52.862Z,962.22
2023-04-19T03:47:52.790Z,962.19
2023-04-19T03:48:52.695Z,962.18
2023-04-19T03:49:52.665Z,962.23
2023-04-19T03:50:52.638Z,962.15
2023-04-19T03:51:52.609Z,962.16
2023-04-19T03:52:52.579Z,962.17
2023-04-19T03:53:52.551Z,962.13
2023-04-19T03:54:52.521Z,962.14
2023-04-19T03:55:52.496Z,962.12
2023-04-19T03:56:52.467Z,962.14
2023-04-19T03:57:52.441Z,962.12
2023-04-19T03:58:52.412Z,962.15
2023-04-19T03:59:52.387Z,962.12
2023-04-19T04:00:52.357Z,962.12
2023-04-19T04:01:52.361Z,962.05
2023-04-19T04:02:52.478Z,962.09
2023-04-19T04:03:52.469Z,962.08
2023-04-19T04:04:52.350Z,962.08
2023-04-19T04:05:52.217Z,962.09
2023-04-19T04:06:52.182Z,962.07
2023-04-19T04:07:52.154Z,962.10
2023-04-19T04:08:52.130Z,962.10
2023-04-19T04:09:52.103Z,962.12
2023-04-19T04:10:52.069Z,962.13
2023-04-19T04:11:52.051Z,962.12
2023-04-19T04:12:52.026Z,962.11
2023-04-19T04:13:51.981Z,962.10
2023-04-19T04:14:51.956Z,962.12
2023-04-19T04:15:51.951Z,962.08
2023-04-19T04:16:51.897Z,962.11
2023-04-19T04:17:51.880Z,962.09
2023-04-19T04:18:51.862Z,962.09
2023-04-19T04:19:51.814Z,962.08
2023-04-19T04:20:51.787Z,962.09
2023-04-19T04:21:51.756Z,962.08
2023-04-19T04:22:51.747Z,962.07
2023-04-19T04:23:51.701Z,962.13
2023-04-19T04:24:51.694Z,962.16
2023-04-19T04:25:51.645Z,962.14
2023-04-19T04:26:51.633Z,962.15
2023-04-19T04:27:51.603Z,962.15
2023-04-19T04:28:51.565Z,962.16
2023-04-19T04:29:51.542Z,962.16
2023-04-19T04:30:51.515Z,962.16
2023-04-19T04:31:51.524Z,962.14
2023-04-19T04:32:51.530Z,962.15
2023-04-19T04:33:51.432Z,962.16
2023-04-19T04:34:51.433Z,962.19
2023-04-19T04:35:51.399Z,962.16
2023-04-19T04:36:51.352Z,962.21
2023-04-19T04:37:51.323Z,962.22
2023-04-19T04:38:51.298Z,962.24
2023-04-19T04:39:51.276Z,962.21
2023-04-19T04:40:51.248Z,962.24
2023-04-19T04:41:51.213Z,962.23
2023-04-19T04:42:51.191Z,962.26
2023-04-19T04:44:04.617Z,962.23
2023-04-19T04:44:51.136Z,962.26
2023-04-19T04:45:51.144Z,962.27
2023-04-19T04:46:51.080Z,962.29
2023-04-19T04:47:51.080Z,962.29
2023-04-19T04:48:51.028Z,962.31
2023-04-19T04:49:50.991Z,962.29
2023-04-19T04:50:50.994Z,962.29
2023-04-19T04:51:50.939Z,962.28
2023-04-19T04:52:50.921Z,962.31
2023-04-19T04:53:50.880Z,962.31
2023-04-19T04:54:50.888Z,962.26
2023-04-19T04:55:50.825Z,962.28
2023-04-19T04:56:50.829Z,962.27
2023-04-19T04:57:50.768Z,962.27
2023-04-19T04:58:50.742Z,962.29
2023-04-19T04:59:50.730Z,962.31
2023-04-19T05:00:50.714Z,962.31
2023-04-19T05:01:50.682Z,962.29
2023-04-19T05:02:50.713Z,962.29
2023-04-19T05:03:50.623Z,962.31
2023-04-19T05:04:50.659Z,962.30
2023-04-19T05:05:50.541Z,962.30
2023-04-19T05:06:50.548Z,962.33
2023-04-19T05:07:50.480Z,962.34
2023-04-19T05:08:50.454Z,962.32
2023-04-19T05:09:50.436Z,962.37
2023-04-19T05:10:50.401Z,962.34
2023-04-19T05:11:50.374Z,962.32
2023-04-19T05:12:50.343Z,962.32
2023-04-19T05:13:50.323Z,962.32
2023-04-19T05:14:50.349Z,962.31
2023-04-19T05:15:50.269Z,962.30
2023-04-19T05:16:50.293Z,962.30
2023-04-19T05:17:50.265Z,962.26
2023-04-19T05:18:50.172Z,962.26
2023-04-19T05:19:50.144Z,962.27
2023-04-19T05:20:50.117Z,962.27
2023-04-19T05:21:50.123Z,962.26
2023-04-19T05:22:50.079Z,962.26
2023-04-19T05:23:50.046Z,962.27
2023-04-19T05:24:50.009Z,962.29
2023-04-19T05:25:49.997Z,962.27
2023-04-19T05:26:49.952Z,962.28
2023-04-19T05:27:49.919Z,962.28
2023-04-19T05:28:49.890Z,962.31
2023-04-19T05:29:49.863Z,962.27
2023-04-19T05:30:49.836Z,962.25
2023-04-19T05:31:49.918Z,962.26
2023-04-19T05:32:49.842Z,962.26
2023-04-19T05:33:49.751Z,962.29
2023-04-19T05:34:49.738Z,962.29
2023-04-19T05:35:49.699Z,962.29
2023-04-19T05:36:49.673Z,962.32
2023-04-19T05:37:49.643Z,962.34
2023-04-19T05:38:49.634Z,962.33
2023-04-19T05:39:49.588Z,962.32
2023-04-19T05:40:49.557Z,962.35
2023-04-19T05:41:49.528Z,962.34
2023-04-19T05:42:49.499Z,962.36
2023-04-19T05:43:49.478Z,962.33
2023-04-19T05:44:49.467Z,962.34
2023-04-19T05:45:49.473Z,962.36
2023-04-19T05:46:49.389Z,962.33
2023-04-19T05:47:49.394Z,962.31
2023-04-19T05:48:49.336Z,962.32
2023-04-19T05:49:49.303Z,962.35
2023-04-19T05:50:49.277Z,962.38
2023-04-19T05:51:49.256Z,962.33
2023-04-19T05:52:49.226Z,962.35
2023-04-19T05:53:49.228Z,962.33
2023-04-19T05:54:49.184Z,962.30
2023-04-19T05:55:49.178Z,962.31
2023-04-19T05:56:49.113Z,962.35
2023-04-19T05:57:49.079Z,962.31
2023-04-19T05:58:49.066Z,962.28
2023-04-19T05:59:49.025Z,962.30
2023-04-19T06:00:49.056Z,962.33
2023-04-19T06:01:49.026Z,962.29
2023-04-19T06:02:49.031Z,962.29
2023-04-19T06:03:49.017Z,962.35
2023-04-19T06:04:49.120Z,962.35
2023-04-19T06:05:48.918Z,962.34
2023-04-19T06:06:48.828Z,962.35
2023-04-19T06:07:55.218Z,962.35
2023-04-19T06:08:48.770Z,962.36
2023-04-19T06:09:48.749Z,962.38
2023-04-19T06:10:53.189Z,962.37
2023-04-19T06:11:51.265Z,962.37
2023-04-19T06:12:48.661Z,962.43
2023-04-19T06:13:48.637Z,962.38
2023-04-19T06:14:48.604Z,962.42
2023-04-19T06:15:48.648Z,962.42
2023-04-19T06:16:48.559Z,962.38
2023-04-19T06:17:48.566Z,962.40
2023-04-19T06:18:48.494Z,962.41
2023-04-19T06:19:48.471Z,962.42
2023-04-19T06:20:48.436Z,962.39
2023-04-19T06:21:48.430Z,962.38
2023-04-19T06:22:48.388Z,962.40
2023-04-19T06:23:48.351Z,962.43
2023-04-19T06:24:48.329Z,962.40
2023-04-19T06:25:48.295Z,962.43
2023-04-19T06:26:48.299Z,962.40
2023-04-19T06:27:48.241Z,962.47
2023-04-19T06:28:48.216Z,962.51
2023-04-19T06:29:50.555Z,962.47
2023-04-19T06:30:48.158Z,962.49
2023-04-19T06:31:48.234Z,962.53
2023-04-19T06:32:48.166Z,962.53
2023-04-19T06:33:48.073Z,962.48
2023-04-19T06:34:48.047Z,962.46
2023-04-19T06:35:48.014Z,962.49
2023-04-19T06:36:47.991Z,962.51
2023-04-19T06:37:47.960Z,962.47
2023-04-19T06:38:47.934Z,962.49
2023-04-19T06:39:47.906Z,962.48
2023-04-19T06:40:48.122Z,962.47
2023-04-19T06:41:47.857Z,962.44
2023-04-19T06:42:47.849Z,962.44
2023-04-19T06:43:47.793Z,962.47
2023-04-19T06:44:47.780Z,962.45
2023-04-19T06:45:47.774Z,962.51
2023-04-19T06:46:47.713Z,962.46
2023-04-19T06:47:47.714Z,962.47
2023-04-19T06:48:47.653Z,962.48
2023-04-19T06:49:47.626Z,962.48
2023-04-19T06:50:47.600Z,962.47
2023-04-19T06:51:47.570Z,962.46
2023-04-19T06:52:47.554Z,962.51
2023-04-19T06:53:47.521Z,962.51
2023-04-19T06:54:47.495Z,962.54
2023-04-19T06:55:47.460Z,962.54
2023-04-19T06:56:47.435Z,962.52
2023-04-19T06:57:47.403Z,962.54
2023-04-19T06:58:47.510Z,962.54
2023-04-19T06:59:47.348Z,962.56
2023-04-19T07:00:47.319Z,962.52
2023-04-19T07:01:47.367Z,962.56
2023-04-19T07:02:47.371Z,962.53
2023-04-19T07:03:47.559Z,962.53
2023-04-19T07:04:47.473Z,962.55
2023-04-19T07:05:47.180Z,962.52
2023-04-19T07:06:47.303Z,962.55
2023-04-19T07:07:47.127Z,962.58
2023-04-19T07:08:50.276Z,962.57
2023-04-19T07:09:47.071Z,962.60
2023-04-19T07:10:47.047Z,962.59
2023-04-19T07:11:47.015Z,962.60
2023-04-19T07:12:46.985Z,962.58
2023-04-19T07:13:46.961Z,962.56
2023-04-19T07:14:46.957Z,962.59
2023-04-19T07:15:46.955Z,962.60
2023-04-19T07:16:46.879Z,962.58
2023-04-19T07:17:46.945Z,962.62
2023-04-19T07:18:46.825Z,962.62
2023-04-19T07:19:46.794Z,962.60
2023-04-19T07:20:46.790Z,962.56
2023-04-19T07:21:46.736Z,962.57
2023-04-19T07:22:46.732Z,962.54
2023-04-19T07:23:46.685Z,962.53
2023-04-19T07:24:46.654Z,962.54
2023-04-19T07:25:46.642Z,962.53
2023-04-19T07:26:46.598Z,962.55
2023-04-19T07:27:47.297Z,962.54
2023-04-19T07:28:46.545Z,962.57
2023-04-19T07:29:46.812Z,962.57
2023-04-19T07:30:46.509Z,962.52
2023-04-19T07:31:46.482Z,962.52
2023-04-19T07:32:46.581Z,962.54
2023-04-19T07:33:46.403Z,962.55
2023-04-19T07:34:46.399Z,962.50
2023-04-19T07:35:46.353Z,962.53
2023-04-19T07:36:46.324Z,962.46
2023-04-19T07:37:46.305Z,962.51
2023-04-19T07:38:46.268Z,962.54
2023-04-19T07:39:46.242Z,962.50
2023-04-19T07:40:46.215Z,962.50
2023-04-19T07:41:46.197Z,962.53
2023-04-19T07:42:46.157Z,962.49
2023-04-19T07:43:46.146Z,962.48
2023-04-19T07:44:46.104Z,962.49
2023-04-19T07:45:46.082Z,962.54
2023-04-19T07:46:46.170Z,962.52
2023-04-19T07:47:46.073Z,962.53
2023-04-19T07:48:45.996Z,962.51
2023-04-19T07:49:45.965Z,962.54
2023-04-19T07:50:45.946Z,962.55
2023-04-19T07:51:45.910Z,962.51
2023-04-19T07:52:45.890Z,962.54
2023-04-19T07:53:45.858Z,962.49
2023-04-19T07:54:45.830Z,962.50
2023-04-19T07:55:45.802Z,962.48
2023-04-19T07:56:45.779Z,962.48
2023-04-19T07:57:45.746Z,962.45
2023-04-19T07:58:50.863Z,962.46
2023-04-19T07:59:45.705Z,962.47
2023-04-19T08:00:45.739Z,962.51
2023-04-19T08:01:45.715Z,962.49
2023-04-19T08:02:46.299Z,962.47
2023-04-19T08:03:45.735Z,962.47
2023-04-19T08:04:45.782Z,962.48
2023-04-19T08:05:45.729Z,962.49
2023-04-19T08:06:45.503Z,962.49
2023-04-19T08:07:45.500Z,962.46
2023-04-19T08:08:45.475Z,962.51
2023-04-19T08:09:45.509Z,962.46
2023-04-19T08:10:45.392Z,962.48
2023-04-19T08:11:45.365Z,962.46
2023-04-19T08:12:57.433Z,962.48
2023-04-19T08:13:55.059Z,962.45
2023-04-19T08:14:59.396Z,962.46
2023-04-19T08:17:45.477Z,962.49
2023-04-19T08:18:45.195Z,962.47
2023-04-19T08:19:45.169Z,962.47
2023-04-19T08:20:45.140Z,962.44
2023-04-19T08:21:45.118Z,962.44
2023-04-19T08:22:45.069Z,962.43
2023-04-19T08:23:48.364Z,962.42
2023-04-19T08:24:45.015Z,962.41
2023-04-19T08:25:44.985Z,962.41
2023-04-19T08:26:44.963Z,962.43
2023-04-19T08:27:44.939Z,962.45
2023-04-19T08:28:44.907Z,962.46
2023-04-19T08:29:44.896Z,962.48
2023-04-19T08:30:44.865Z,962.45
2023-04-19T08:31:44.857Z,962.47
2023-04-19T08:32:44.853Z,962.47
2023-04-19T08:33:44.773Z,962.46
2023-04-19T08:34:44.764Z,962.46
2023-04-19T08:35:44.727Z,962.44
2023-04-19T08:36:51.779Z,962.47
2023-04-19T08:37:44.681Z,962.49
2023-04-19T08:38:46.812Z,962.47
2023-04-19T08:39:44.616Z,962.45
2023-04-19T08:40:44.588Z,962.47
2023-04-19T08:41:48.078Z,962.44
2023-04-19T08:42:44.534Z,962.42
2023-04-19T08:43:44.511Z,962.43
2023-04-19T08:45:02.283Z,962.45
2023-04-19T08:45:44.464Z,962.43
2023-04-19T08:46:44.439Z,962.41
2023-04-19T08:47:58.825Z,962.42
2023-04-19T08:48:44.448Z,962.37
2023-04-19T08:49:44.767Z,962.38
2023-04-19T08:51:00.717Z,962.38
2023-04-19T08:51:44.291Z,962.37
2023-04-19T08:52:54.189Z,962.35
2023-04-19T08:53:44.238Z,962.36
2023-04-19T08:54:44.212Z,962.32
2023-04-19T08:55:58.473Z,962.36
2023-04-19T08:56:44.156Z,962.34
2023-04-19T08:57:44.130Z,962.36
2023-04-19T08:59:00.343Z,962.34
2023-04-19T08:59:44.079Z,962.35
2023-04-19T09:00:44.050Z,962.35
2023-04-19T09:01:44.851Z,962.34
2023-04-19T09:02:44.255Z,962.35
2023-04-19T09:03:58.488Z,962.33
2023-04-19T09:04:44.154Z,962.34
2023-04-19T09:05:44.190Z,962.33
2023-04-19T09:06:44.022Z,962.35
2023-04-19T09:07:43.863Z,962.34
2023-04-19T09:08:43.834Z,962.35
2023-04-19T09:09:56.029Z,962.32
2023-04-19T09:10:43.780Z,962.30
2023-04-19T09:11:43.758Z,962.30
2023-04-19T09:12:43.726Z,962.30
2023-04-19T09:13:43.699Z,962.27
2023-04-19T09:14:53.755Z,962.29
2023-04-19T09:15:43.691Z,962.28
2023-04-19T09:16:43.636Z,962.31
2023-04-19T09:17:43.613Z,962.31
2023-04-19T09:18:56.221Z,962.28
2023-04-19T09:19:43.539Z,962.33
2023-04-19T09:20:43.510Z,962.30
2023-04-19T09:21:43.482Z,962.30
2023-04-19T09:22:43.562Z,962.31
2023-04-19T09:23:43.432Z,962.31
2023-04-19T09:26:11.264Z,962.29
2023-04-19T09:26:43.350Z,962.32
2023-04-19T09:27:43.323Z,962.24
2023-04-19T09:28:43.303Z,962.25
2023-04-19T09:29:43.289Z,962.24
2023-04-19T09:30:57.919Z,962.25
2023-04-19T09:31:51.324Z,962.27
2023-04-19T09:32:43.274Z,962.26
2023-04-19T09:33:43.212Z,962.22
2023-04-19T09:34:43.137Z,962.22
2023-04-19T09:35:43.115Z,962.22
2023-04-19T09:36:43.091Z,962.20
2023-04-19T09:38:43.060Z,962.24
2023-04-19T09:39:43.011Z,962.21
2023-04-19T09:40:42.997Z,962.16
2023-04-19T09:41:43.693Z,962.16
2023-04-19T09:44:00.735Z,962.13
2023-04-19T09:45:42.855Z,962.14
2023-04-19T09:46:42.940Z,962.15
2023-04-19T09:47:42.876Z,962.15
2023-04-19T09:48:42.775Z,962.09
2023-04-19T09:49:49.137Z,962.08
2023-04-19T09:50:53.992Z,962.08
2023-04-19T09:51:42.697Z,962.09
2023-04-19T09:52:42.670Z,962.08
2023-04-19T09:53:42.651Z,962.08
2023-04-19T09:54:42.642Z,962.11
2023-04-19T09:55:53.452Z,962.04
2023-04-19T09:56:42.573Z,962.02
2023-04-19T09:57:42.542Z,962.02
2023-04-19T09:58:51.363Z,962.01
2023-04-19T09:59:42.489Z,962.00
2023-04-19T10:00:50.066Z,961.99
2023-04-19T10:01:42.472Z,961.99
2023-04-19T10:02:42.518Z,962.01
2023-04-19T10:03:42.497Z,961.93
2023-04-19T10:05:02.729Z,962.03
2023-04-19T10:05:42.410Z,961.98
2023-04-19T10:07:06.713Z,961.99
2023-04-19T10:07:42.336Z,961.94
2023-04-19T10:08:42.259Z,961.96
2023-04-19T10:09:49.646Z,961.94
2023-04-19T10:10:42.908Z,961.93
2023-04-19T10:11:44.784Z,961.94
2023-04-19T10:13:42.129Z,961.90
2023-04-19T10:14:42.102Z,961.87
2023-04-19T10:15:50.245Z,961.90
2023-04-19T10:16:42.063Z,961.87
2023-04-19T10:17:42.029Z,961.84
2023-04-19T10:18:42.001Z,961.84
2023-04-19T10:19:41.976Z,961.86
2023-04-19T10:20:41.962Z,961.83
2023-04-19T10:21:41.925Z,961.83
2023-04-19T10:22:41.902Z,961.85
2023-04-19T10:23:41.871Z,961.83
2023-04-19T10:24:43.347Z,961.86
2023-04-19T10:25:41.819Z,961.82
2023-04-19T10:26:41.818Z,961.84
2023-04-19T10:27:41.804Z,961.82
2023-04-19T10:28:41.743Z,961.84
2023-04-19T10:29:41.721Z,961.82
2023-04-19T10:30:41.693Z,961.81
2023-04-19T10:31:41.691Z,961.81
2023-04-19T10:32:41.683Z,961.80
2023-04-19T10:33:41.612Z,961.75
2023-04-19T10:34:41.590Z,961.79
2023-04-19T10:35:41.559Z,961.77
2023-04-19T10:36:41.540Z,961.80
2023-04-19T10:37:41.508Z,961.79
2023-04-19T10:38:41.564Z,961.83
2023-04-19T10:39:41.455Z,961.81
2023-04-19T10:40:41.428Z,961.78
2023-04-19T10:41:41.407Z,961.78
2023-04-19T10:42:41.395Z,961.73
2023-04-19T10:43:41.359Z,961.72
2023-04-19T10:44:41.324Z,961.67
2023-04-19T10:45:41.337Z,961.68
2023-04-19T10:46:41.273Z,961.70
2023-04-19T10:47:41.358Z,961.67
2023-04-19T10:48:41.242Z,961.62
2023-04-19T10:49:41.197Z,961.65
2023-04-19T10:50:41.168Z,961.61
2023-04-19T10:51:41.145Z,961.65
2023-04-19T10:52:41.118Z,961.64
2023-04-19T10:53:41.092Z,961.64
2023-04-19T10:54:41.067Z,961.56
2023-04-19T10:55:41.040Z,961.62
2023-04-19T10:56:41.019Z,961.56
2023-04-19T10:57:40.991Z,961.60
2023-04-19T10:58:41.131Z,961.56
2023-04-19T10:59:40.945Z,961.57
2023-04-19T11:00:40.944Z,961.56
2023-04-19T11:01:41.070Z,961.54
2023-04-19T11:02:40.999Z,961.52
2023-04-19T11:03:41.016Z,961.55
2023-04-19T11:04:40.907Z,961.50
2023-04-19T11:05:40.782Z,961.48
2023-04-19T11:06:40.754Z,961.43
2023-04-19T11:07:40.733Z,961.47
2023-04-19T11:08:40.703Z,961.47
2023-04-19T11:09:40.705Z,961.43
2023-04-19T11:10:40.782Z,961.43
2023-04-19T11:11:40.625Z,961.40
2023-04-19T11:12:40.599Z,961.37
2023-04-19T11:13:40.572Z,961.37
2023-04-19T11:14:40.567Z,961.40
2023-04-19T11:15:40.553Z,961.36
2023-04-19T11:16:46.143Z,961.38
2023-04-19T11:17:40.502Z,961.42
2023-04-19T11:18:40.447Z,961.35
2023-04-19T11:19:40.418Z,961.36
2023-04-19T11:20:40.508Z,961.36
2023-04-19T11:21:40.367Z,961.35
2023-04-19T11:22:40.338Z,961.33
2023-04-19T11:23:40.320Z,961.34
2023-04-19T11:24:40.287Z,961.32
2023-04-19T11:25:40.267Z,961.29
2023-04-19T11:26:40.233Z,961.29
2023-04-19T11:27:40.229Z,961.29
2023-04-19T11:28:40.181Z,961.30
2023-04-19T11:29:40.158Z,961.27
2023-04-19T11:30:40.382Z,961.27
2023-04-19T11:31:40.116Z,961.23
2023-04-19T11:32:40.122Z,961.18
2023-04-19T11:33:40.053Z,961.21
2023-04-19T11:34:40.039Z,961.18
2023-04-19T11:35:39.998Z,961.18
2023-04-19T11:36:39.976Z,961.20
2023-04-19T11:37:39.957Z,961.17
2023-04-19T11:38:39.935Z,961.15
2023-04-19T11:39:39.899Z,961.13
2023-04-19T11:40:39.876Z,961.14
2023-04-19T11:41:39.855Z,961.14
2023-04-19T11:42:39.824Z,961.08
2023-04-19T11:43:39.800Z,961.14
2023-04-19T11:44:39.787Z,961.12
2023-04-19T11:45:40.379Z,961.11
2023-04-19T11:46:39.860Z,961.12
2023-04-19T11:47:39.707Z,961.13
2023-04-19T11:48:39.678Z,961.12
2023-04-19T11:49:39.664Z,961.07
2023-04-19T11:50:39.809Z,961.11
2023-04-19T11:51:39.603Z,961.02
2023-04-19T11:52:39.585Z,961.04
2023-04-19T11:53:39.559Z,961.02
2023-04-19T11:54:39.528Z,961.02
2023-04-19T11:55:39.514Z,960.99
2023-04-19T11:56:39.494Z,961.02
2023-04-19T11:57:41.079Z,961.01
2023-04-19T11:58:39.420Z,961.00
2023-04-19T11:59:39.420Z,960.98
2023-04-19T12:00:39.367Z,960.95
2023-04-19T12:01:39.337Z,960.96
2023-04-19T12:02:39.480Z,960.94
2023-04-19T12:03:39.524Z,960.94
2023-04-19T12:04:39.395Z,960.93
2023-04-19T12:05:39.309Z,960.92
2023-04-19T12:06:39.217Z,960.88
2023-04-19T12:07:39.189Z,960.91
2023-04-19T12:08:39.175Z,960.93
2023-04-19T12:09:39.137Z,960.89
2023-04-19T12:10:39.109Z,960.91
2023-04-19T12:11:39.085Z,960.90
2023-04-19T12:12:39.061Z,960.88
2023-04-19T12:13:39.036Z,960.89
2023-04-19T12:14:39.007Z,960.90
2023-04-19T12:15:38.985Z,960.91
2023-04-19T12:16:39.003Z,960.92
2023-04-19T12:17:47.698Z,960.91
2023-04-19T12:18:38.931Z,960.86
2023-04-19T12:19:38.883Z,960.89
2023-04-19T12:20:38.866Z,960.86
2023-04-19T12:21:38.833Z,960.88
2023-04-19T12:22:38.809Z,960.85
2023-04-19T12:23:38.782Z,960.84
2023-04-19T12:24:38.751Z,960.85
2023-04-19T12:25:38.728Z,960.81
2023-04-19T12:26:38.703Z,960.81
2023-04-19T12:27:38.677Z,960.81
2023-04-19T12:28:38.655Z,960.81
2023-04-19T12:29:38.649Z,960.79
2023-04-19T12:30:38.613Z,960.78
2023-04-19T12:31:38.643Z,960.79
2023-04-19T12:32:38.658Z,960.76
2023-04-19T12:33:38.524Z,960.74
2023-04-19T12:34:38.554Z,960.72
2023-04-19T12:35:38.548Z,960.75